Fantasy — H3GS — position and weather

sailwx.info

Track history (hours):
 
Tides and Currents Weather Stations Pressure Air Temp Water Temp Dewpoint Dewpoint Depression Visibility Wind Speed Wind Dir Waves Ship Positions

Fantasy

Operator: Carnival Cruise Lines

Last reported at 2017-Apr-26 12:00 UTC. Time now 2017-Apr-27 01:31 UTC.
Position N 24°54' W 086°54'.

Type: Ship. MMSI: 353486000.

Wind from 120 at 20 knots

Barometer 1019.0 mb
Air temperature 25.0 ° C
Visibility: greater than 10.8 NM
Dewpoint 22.0 ° C
Water temperature 27.0 ° C

Date/timePositionNaut miles runAvg speedWind from/ knotsBaromVisibWave heightAir tempDewpointWater temp
2017-Apr-26 12:00N 24°54' W 086°54'25518.6 120 / 201019.010.8 25.022.027.0
2017-Apr-25 22:18N 20°39' W 086°54'517.3
2017-Apr-25 22:01N 20°35' W 086°57'612.4
2017-Apr-25 21:30N 20°29' W 086°59'1 1.1
2017-Apr-25 21:00N 20°29' W 086°59'0 0.0
2017-Apr-25 20:27N 20°29' W 086°59'0 0.0
2017-Apr-25 20:00N 20°29' W 086°59'0 0.0
2017-Apr-25 19:17N 20°29' W 086°59'0 0.0
2017-Apr-25 18:59N 20°29' W 086°59'0 0.0
2017-Apr-25 18:29N 20°29' W 086°59'0 0.0
2017-Apr-25 17:59N 20°29' W 086°59'0 0.0
2017-Apr-25 17:29N 20°29' W 086°59'0 0.0
2017-Apr-25 16:58N 20°29' W 086°59'0 0.0
2017-Apr-25 16:30N 20°29' W 086°59'0 0.0
2017-Apr-25 15:58N 20°29' W 086°59'0 0.0
2017-Apr-25 15:30N 20°29' W 086°59'0 0.0
2017-Apr-25 15:00N 20°29' W 086°59'0 0.0
2017-Apr-25 13:54N 20°29' W 086°59'0 0.0
2017-Apr-25 13:30N 20°29' W 086°59'0 0.0
2017-Apr-25 13:00N 20°29' W 086°59'0 0.2
2017-Apr-25 12:30N 20°29' W 086°59'3 5.7
2017-Apr-25 12:01N 20°28' W 087°02'611.3
2017-Apr-25 11:26N 20°24' W 087°07'49 2.1
2017-Apr-24 12:00N 19°36' W 086°54'42617.8 010 / 101012.010.8 23.018.327.4
2017-Apr-23 12:00N 26°42' W 087°00'   310 / 101014.010.8 26.023.126.0
2017-Apr-20 22:40N 20°39' W 086°54'321.3
2017-Apr-20 22:30N 20°36' W 086°56'714.5
2017-Apr-20 22:00N 20°30' W 086°59'1 1.7
2017-Apr-20 21:28N 20°29' W 086°59'0 0.0
2017-Apr-20 21:00N 20°29' W 086°59'0 0.0
2017-Apr-20 20:30N 20°29' W 086°59'0 0.0
2017-Apr-20 20:00N 20°29' W 086°59'0 0.0
2017-Apr-20 19:30N 20°29' W 086°59'0 0.0
2017-Apr-20 19:00N 20°29' W 086°59'0 0.0
2017-Apr-20 18:29N 20°29' W 086°59'0 0.0
2017-Apr-20 17:56N 20°29' W 086°59'0 0.0
2017-Apr-20 17:29N 20°29' W 086°59'0 0.0
2017-Apr-20 16:58N 20°29' W 086°59'0 0.0
2017-Apr-20 16:28N 20°29' W 086°59'0 0.0
2017-Apr-20 15:58N 20°29' W 086°59'0 0.0
2017-Apr-20 15:28N 20°29' W 086°59'0 0.0
2017-Apr-20 14:58N 20°29' W 086°59'0 0.0
2017-Apr-20 14:00N 20°29' W 086°59'0 0.0
2017-Apr-20 13:30N 20°29' W 086°59'0 0.1
2017-Apr-20 13:00N 20°29' W 086°59'3 5.4
2017-Apr-20 12:30N 20°31' W 086°58'612.3
2017-Apr-20 12:00N 20°37' W 086°56'424 8.8
2017-Apr-18 12:00N 27°36' W 088°06'211 4.4 100 / 151022.010.8 22.013.425.0
2017-Apr-16 12:00N 26°00' W 084°36'   110 / 251023.010.8 22.015.425.0
Track history (hours):
 
Tides and Currents Weather Stations Pressure Air Temp Water Temp Dewpoint Dewpoint Depression Visibility Wind Speed Wind Dir Waves Ship Positions

Fantasy

Operator: Carnival Cruise Lines

Last reported at 2017-Apr-26 12:00 UTC. Time now 2017-Apr-27 01:31 UTC.
Position N 24°54' W 086°54'.

Type: Ship. MMSI: 353486000.

Wind from 120 at 20 knots

Barometer 1019.0 mb
Air temperature 25.0 ° C
Visibility: greater than 10.8 NM
Dewpoint 22.0 ° C
Water temperature 27.0 ° C

Date/timePositionNaut miles runAvg speedWind from/ knotsBaromVisibWave heightAir tempDewpointWater temp
2017-Apr-26 12:00N 24°54' W 086°54'25518.6 120 / 201019.010.8 25.022.027.0
2017-Apr-25 22:18N 20°39' W 086°54'517.3
2017-Apr-25 22:01N 20°35' W 086°57'612.4
2017-Apr-25 21:30N 20°29' W 086°59'1 1.1
2017-Apr-25 21:00N 20°29' W 086°59'0 0.0
2017-Apr-25 20:27N 20°29' W 086°59'0 0.0
2017-Apr-25 20:00N 20°29' W 086°59'0 0.0
2017-Apr-25 19:17N 20°29' W 086°59'0 0.0
2017-Apr-25 18:59N 20°29' W 086°59'0 0.0
2017-Apr-25 18:29N 20°29' W 086°59'0 0.0
2017-Apr-25 17:59N 20°29' W 086°59'0 0.0
2017-Apr-25 17:29N 20°29' W 086°59'0 0.0
2017-Apr-25 16:58N 20°29' W 086°59'0 0.0
2017-Apr-25 16:30N 20°29' W 086°59'0 0.0
2017-Apr-25 15:58N 20°29' W 086°59'0 0.0
2017-Apr-25 15:30N 20°29' W 086°59'0 0.0
2017-Apr-25 15:00N 20°29' W 086°59'0 0.0
2017-Apr-25 13:54N 20°29' W 086°59'0 0.0
2017-Apr-25 13:30N 20°29' W 086°59'0 0.0
2017-Apr-25 13:00N 20°29' W 086°59'0 0.2
2017-Apr-25 12:30N 20°29' W 086°59'3 5.7
2017-Apr-25 12:01N 20°28' W 087°02'611.3
2017-Apr-25 11:26N 20°24' W 087°07'49 2.1
2017-Apr-24 12:00N 19°36' W 086°54'42617.8 010 / 101012.010.8 23.018.327.4
2017-Apr-23 12:00N 26°42' W 087°00'   310 / 101014.010.8 26.023.126.0
2017-Apr-20 22:40N 20°39' W 086°54'321.3
2017-Apr-20 22:30N 20°36' W 086°56'714.5
2017-Apr-20 22:00N 20°30' W 086°59'1 1.7
2017-Apr-20 21:28N 20°29' W 086°59'0 0.0
2017-Apr-20 21:00N 20°29' W 086°59'0 0.0
2017-Apr-20 20:30N 20°29' W 086°59'0 0.0
2017-Apr-20 20:00N 20°29' W 086°59'0 0.0
2017-Apr-20 19:30N 20°29' W 086°59'0 0.0
2017-Apr-20 19:00N 20°29' W 086°59'0 0.0
2017-Apr-20 18:29N 20°29' W 086°59'0 0.0
2017-Apr-20 17:56N 20°29' W 086°59'0 0.0
2017-Apr-20 17:29N 20°29' W 086°59'0 0.0
2017-Apr-20 16:58N 20°29' W 086°59'0 0.0
2017-Apr-20 16:28N 20°29' W 086°59'0 0.0
2017-Apr-20 15:58N 20°29' W 086°59'0 0.0
2017-Apr-20 15:28N 20°29' W 086°59'0 0.0
2017-Apr-20 14:58N 20°29' W 086°59'0 0.0
2017-Apr-20 14:00N 20°29' W 086°59'0 0.0
2017-Apr-20 13:30N 20°29' W 086°59'0 0.1
2017-Apr-20 13:00N 20°29' W 086°59'3 5.4
2017-Apr-20 12:30N 20°31' W 086°58'612.3
2017-Apr-20 12:00N 20°37' W 086°56'424 8.8
2017-Apr-18 12:00N 27°36' W 088°06'211 4.4 100 / 151022.010.8 22.013.425.0
2017-Apr-16 12:00N 26°00' W 084°36'   110 / 251023.010.8 22.015.425.0

Dump ship's entire track history